Time;durP1;ratioP1;P1;durP2;ratioP2;P2;SDS_P1;SDS_P2;PMS_P1;PMS_P2;Temp;Humidity;BMP_temperature;BMP_pressure;BME280_temperature;BME280_humidity;BME280_pressure;Samples;Min_cycle;Max_cycle;Signal;HPM_P1;HPM_P2
2024/01/20 00:02:06;;;;;;;31.42;16.70;;;51.30;2227.20;;;;;;5090712;28;20032;-76
2024/01/20 00:04:32;;;;;;;85.82;40.03;;;51.30;2227.20;;;;;;5092131;28;20078;-79
2024/01/20 00:06:58;;;;;;;23.75;12.02;;;51.30;2227.20;;;;;;5090404;28;20502;-80
2024/01/20 00:09:23;;;;;;;13.82;9.95;;;51.50;2227.20;;;;;;5084956;28;20060;-78
2024/01/20 00:11:49;;;;;;;17.48;10.90;;;51.30;2227.20;;;;;;5092248;28;20118;-83
2024/01/20 00:14:15;;;;;;;20.08;11.48;;;51.30;2227.20;;;;;;5092081;28;20065;-77
2024/01/20 00:16:41;;;;;;;21.77;14.57;;;26.50;2201.60;;;;;;5084107;28;20024;-82
2024/01/20 00:19:06;;;;;;;21.77;11.25;;;26.50;2201.60;;;;;;5086985;28;20107;-81
2024/01/20 00:21:32;;;;;;;27.55;16.45;;;26.40;2201.60;;;;;;5092404;28;20032;-82
2024/01/20 00:23:58;;;;;;;23.83;18.90;;;26.50;2201.60;;;;;;5092363;28;20150;-76
2024/01/20 00:26:24;;;;;;;89.47;35.20;;;51.20;2227.20;;;;;;5092020;28;20059;-82
2024/01/20 00:28:49;;;;;;;29.13;14.73;;;51.30;2227.20;;;;;;5091855;28;20028;-82
2024/01/20 00:31:15;;;;;;;29.75;14.50;;;51.30;2227.20;;;;;;5092079;28;20028;-83
2024/01/20 00:33:41;;;;;;;26.98;13.38;;;26.50;2201.60;;;;;;5089628;28;20028;-83
2024/01/20 00:36:07;;;;;;;25.42;13.35;;;51.20;2227.20;;;;;;5080687;28;20040;-81
2024/01/20 00:38:33;;;;;;;21.08;11.38;;;26.50;2201.60;;;;;;5078454;28;20150;-82
2024/01/20 00:40:59;;;;;;;19.20;11.23;;;26.50;2201.60;;;;;;5092054;28;20055;-84
2024/01/20 00:43:25;;;;;;;18.77;12.27;;;26.50;2201.60;;;;;;5075471;28;20028;-81
2024/01/20 00:45:51;;;;;;;21.40;14.30;;;26.50;2201.60;;;;;;5080574;28;20032;-81
2024/01/20 00:48:16;;;;;;;43.70;24.55;;;51.20;2227.20;;;;;;5091182;28;20097;-84
2024/01/20 00:50:42;;;;;;;44.33;22.23;;;51.20;2227.20;;;;;;5092387;28;20020;-80
2024/01/20 00:53:08;;;;;;;31.15;17.55;;;51.20;2227.20;;;;;;5091909;28;20481;-83
2024/01/20 00:55:34;;;;;;;25.02;12.52;;;51.30;2227.20;;;;;;5091628;28;20052;-81
2024/01/20 00:57:59;;;;;;;22.20;13.45;;;51.20;2227.20;;;;;;5092026;28;20067;-84
2024/01/20 01:00:25;;;;;;;17.67;11.93;;;51.30;2227.20;;;;;;5088547;28;20028;-84
2024/01/20 01:02:51;;;;;;;16.45;9.52;;;51.30;2227.20;;;;;;5078676;28;20340;-84
2024/01/20 01:05:17;;;;;;;78.13;43.33;;;51.50;2227.20;;;;;;5091222;28;20063;-79
2024/01/20 01:07:42;;;;;;;18.35;11.15;;;51.20;2227.20;;;;;;5083708;28;20024;-72
2024/01/20 01:10:08;;;;;;;18.70;11.85;;;51.20;2227.20;;;;;;5084746;28;20036;-83
2024/01/20 01:12:35;;;;;;;45.20;22.83;;;26.50;2201.60;;;;;;5070992;28;20021;-81
2024/01/20 01:15:01;;;;;;;33.13;17.13;;;26.50;2201.60;;;;;;5085348;28;20157;-80
2024/01/20 01:17:27;;;;;;;79.88;35.50;;;51.20;2227.20;;;;;;5091139;28;20024;-84
2024/01/20 01:19:52;;;;;;;19.48;11.00;;;51.20;2227.20;;;;;;5091143;28;20028;-83
2024/01/20 01:22:18;;;;;;;28.52;14.10;;;26.50;2201.60;;;;;;5090099;28;20036;-84
2024/01/20 01:24:44;;;;;;;16.45;9.55;;;26.50;2201.60;;;;;;5086400;28;20107;-83
2024/01/20 01:27:10;;;;;;;22.00;11.27;;;51.40;2227.20;;;;;;5075168;28;20051;-84
2024/01/20 01:29:35;;;;;;;38.47;19.38;;;26.50;2201.60;;;;;;5070636;28;20129;-84
2024/01/20 01:32:02;;;;;;;27.15;15.13;;;26.50;2201.60;;;;;;5086892;28;20035;-82
2024/01/20 01:34:27;;;;;;;12.40;8.98;;;51.20;2227.20;;;;;;5090726;28;20385;-82
2024/01/20 01:36:53;;;;;;;14.45;9.70;;;26.50;2201.60;;;;;;5074497;28;20103;-79
2024/01/20 01:39:20;;;;;;;42.13;21.75;;;26.40;2201.60;;;;;;5070453;28;20107;-74
2024/01/20 01:41:46;;;;;;;28.65;14.60;;;26.40;2201.60;;;;;;5072812;28;20024;-82
2024/01/20 01:44:12;;;;;;;33.70;18.42;;;26.50;2201.60;;;;;;5090427;28;20039;-83
2024/01/20 01:46:38;;;;;;;45.22;23.77;;;26.50;2201.60;;;;;;5087716;28;20477;-83
2024/01/20 01:49:06;;;;;;;51.25;25.08;;;26.40;2201.60;;;;;;5079330;28;20523;-80
2024/01/20 01:51:32;;;;;;;26.85;14.18;;;26.40;2201.60;;;;;;5087807;28;20228;-75
2024/01/20 01:54:01;;;;;;;33.40;18.90;;;26.30;2201.60;;;;;;5069970;28;20429;-83
2024/01/20 01:56:29;;;;;;;21.25;12.45;;;26.30;1868.80;;;;;;5078044;28;20020;-82
2024/01/20 01:58:56;;;;;;;17.60;11.63;;;26.30;2201.60;;;;;;5088816;28;20024;-85
2024/01/20 02:01:22;;;;;;;17.40;12.27;;;26.30;2201.60;;;;;;5070236;28;20027;-84
2024/01/20 02:03:48;;;;;;;19.73;11.95;;;26.30;2201.60;;;;;;5082992;28;20043;-84
2024/01/20 02:06:14;;;;;;;18.45;12.05;;;26.40;2201.60;;;;;;5078439;28;20462;-82
2024/01/20 02:08:40;;;;;;;17.98;13.15;;;26.30;2201.60;;;;;;5090001;28;20032;-85
2024/01/20 02:11:07;;;;;;;17.98;10.82;;;26.30;2201.60;;;;;;5089542;28;20020;-84
2024/01/20 02:13:33;;;;;;;11.50;8.00;;;26.30;2201.60;;;;;;5089599;28;20021;-78
2024/01/20 02:16:00;;;;;;;15.75;9.90;;;26.30;2201.60;;;;;;5081093;28;20021;-84
2024/01/20 02:18:26;;;;;;;17.60;8.98;;;26.40;2201.60;;;;;;5069639;28;20021;-84
2024/01/20 02:20:52;;;;;;;14.15;9.48;;;26.40;2201.60;;;;;;5079428;28;20594;-83
2024/01/20 02:23:18;;;;;;;12.80;7.55;;;26.30;2201.60;;;;;;5089830;28;20020;-83
2024/01/20 02:25:44;;;;;;;13.80;8.80;;;26.30;2201.60;;;;;;5089706;28;20027;-83
2024/01/20 02:28:10;;;;;;;17.70;9.68;;;26.30;2201.60;;;;;;5089841;28;20408;-83
2024/01/20 02:30:36;;;;;;;15.27;10.25;;;26.20;2201.60;;;;;;5089943;28;20035;-84
2024/01/20 02:33:02;;;;;;;14.90;9.95;;;26.30;2201.60;;;;;;5089696;28;20051;-73
2024/01/20 02:35:27;;;;;;;13.68;9.05;;;26.20;2201.60;;;;;;5089905;28;20035;-85
2024/01/20 02:37:53;;;;;;;14.55;9.13;;;26.20;2201.60;;;;;;5088129;28;20085;-79
2024/01/20 02:40:19;;;;;;;15.30;10.13;;;26.10;2201.60;;;;;;5080892;28;20025;-82
2024/01/20 02:42:45;;;;;;;16.23;10.38;;;26.20;2201.60;;;;;;5084655;28;20089;-84
2024/01/20 02:45:10;;;;;;;20.27;11.88;;;26.10;2201.60;;;;;;5089485;28;20073;-83
2024/01/20 02:47:37;;;;;;;111.32;48.28;;;26.10;2201.60;;;;;;5087077;28;20030;-84
2024/01/20 02:50:03;;;;;;;16.55;9.55;;;26.10;2201.60;;;;;;5069318;28;20470;-80
2024/01/20 02:52:29;;;;;;;16.65;9.50;;;26.10;2201.60;;;;;;5085115;28;20035;-85
2024/01/20 02:54:54;;;;;;;22.90;12.77;;;26.00;2201.60;;;;;;5080613;28;20397;-83
2024/01/20 02:57:20;;;;;;;29.27;14.32;;;26.00;2201.60;;;;;;5085218;28;20047;-84
2024/01/20 02:59:46;;;;;;;40.03;18.15;;;26.00;2201.60;;;;;;5089440;28;20515;-79
2024/01/20 03:02:11;;;;;;;146.13;70.32;;;26.00;2201.60;;;;;;5073455;28;20036;-78
2024/01/20 03:04:37;;;;;;;77.13;37.78;;;26.10;2201.60;;;;;;5069517;28;20043;-85
2024/01/20 03:07:04;;;;;;;21.40;15.15;;;26.00;2201.60;;;;;;5082415;28;20031;-80
2024/01/20 03:09:29;;;;;;;21.48;12.80;;;26.10;2201.60;;;;;;5078016;28;20035;-84
2024/01/20 03:11:55;;;;;;;41.55;21.27;;;26.10;2201.60;;;;;;5086674;28;20024;-83
2024/01/20 03:14:21;;;;;;;28.88;14.85;;;26.20;2201.60;;;;;;5078067;28;20054;-82
2024/01/20 03:16:47;;;;;;;22.08;12.65;;;26.20;2201.60;;;;;;5089013;28;20390;-82
2024/01/20 03:19:12;;;;;;;46.92;23.52;;;26.00;2201.60;;;;;;5088706;28;20032;-78
2024/01/20 03:21:38;;;;;;;16.20;9.75;;;26.00;2201.60;;;;;;5089092;28;20024;-83
2024/01/20 03:24:04;;;;;;;21.08;13.82;;;25.90;2201.60;;;;;;5089095;28;20062;-83
2024/01/20 03:26:30;;;;;;;21.08;12.30;;;25.90;2201.60;;;;;;5073968;28;20020;-83
2024/01/20 03:28:56;;;;;;;23.08;12.27;;;26.00;2201.60;;;;;;5077393;28;20363;-83
2024/01/20 03:31:21;;;;;;;17.75;11.48;;;26.00;2201.60;;;;;;5087090;28;20067;-77
2024/01/20 03:33:47;;;;;;;16.90;10.77;;;25.90;2201.60;;;;;;5077558;28;20035;-83
2024/01/20 03:36:13;;;;;;;24.35;14.25;;;26.00;2201.60;;;;;;5075459;28;20035;-85
2024/01/20 03:38:39;;;;;;;25.45;11.70;;;26.00;2201.60;;;;;;5089107;28;20032;-82
2024/01/20 03:41:04;;;;;;;23.55;12.85;;;26.00;2201.60;;;;;;5088838;28;20370;-81
2024/01/20 03:43:30;;;;;;;20.15;10.77;;;26.00;2201.60;;;;;;5088790;28;20389;-84
2024/01/20 03:45:56;;;;;;;18.10;11.05;;;26.00;2201.60;;;;;;5088794;28;20050;-77
2024/01/20 03:48:22;;;;;;;18.98;11.02;;;26.00;2201.60;;;;;;5088621;28;20194;-84
2024/01/20 03:50:47;;;;;;;21.33;12.93;;;26.00;2201.60;;;;;;5086607;28;20101;-81
2024/01/20 03:53:13;;;;;;;18.10;11.88;;;26.00;2201.60;;;;;;5076991;28;20028;-84
2024/01/20 03:55:39;;;;;;;24.80;13.10;;;26.00;2201.60;;;;;;5087263;28;20105;-83
2024/01/20 03:58:05;;;;;;;20.52;13.65;;;25.90;2201.60;;;;;;5068518;28;20046;-82
2024/01/20 04:00:31;;;;;;;32.08;21.00;;;25.90;2201.60;;;;;;5071024;28;20443;-80
2024/01/20 04:02:57;;;;;;;22.27;14.27;;;25.90;2201.60;;;;;;5088425;28;20135;-84
2024/01/20 04:05:23;;;;;;;20.55;13.10;;;25.80;2201.60;;;;;;5074738;28;20075;-75
2024/01/20 04:07:49;;;;;;;23.73;13.95;;;25.70;2201.60;;;;;;5088867;28;20016;-83
2024/01/20 04:10:15;;;;;;;22.67;14.05;;;25.80;2201.60;;;;;;5075069;28;20363;-83
2024/01/20 04:12:41;;;;;;;21.85;12.45;;;26.00;2201.60;;;;;;5089138;28;20103;-84
2024/01/20 04:15:08;;;;;;;21.42;12.18;;;25.90;2201.60;;;;;;5086593;28;20024;-84
2024/01/20 04:17:34;;;;;;;22.90;12.13;;;25.90;2201.60;;;;;;5077438;28;20112;-76
2024/01/20 04:19:59;;;;;;;26.92;15.35;;;25.90;2201.60;;;;;;5092478;28;20463;-85
2024/01/20 04:22:25;;;;;;;21.27;12.98;;;25.80;2201.60;;;;;;5091140;28;20028;-85
2024/01/20 04:24:51;;;;;;;23.95;13.35;;;25.80;2201.60;;;;;;5092319;28;20101;-83
2024/01/20 04:27:17;;;;;;;30.17;18.48;;;26.00;2201.60;;;;;;5092254;28;20469;-84
2024/01/20 04:29:42;;;;;;;26.83;17.80;;;25.90;2201.60;;;;;;5078638;28;20044;-81
2024/01/20 04:32:08;;;;;;;22.75;14.05;;;25.90;2201.60;;;;;;5083550;28;20410;-84
2024/01/20 04:34:34;;;;;;;22.27;14.00;;;25.90;2201.60;;;;;;5071896;28;20406;-83
2024/01/20 04:37:00;;;;;;;27.08;14.02;;;25.90;2201.60;;;;;;5072382;28;20039;-85
2024/01/20 04:39:25;;;;;;;24.15;14.15;;;25.90;2201.60;;;;;;5087287;28;20477;-83
2024/01/20 04:41:51;;;;;;;21.30;13.20;;;26.00;2201.60;;;;;;5092157;28;20024;-83
2024/01/20 04:44:17;;;;;;;22.60;13.02;;;25.90;2201.60;;;;;;5091704;28;20040;-83
2024/01/20 04:46:43;;;;;;;20.45;13.40;;;25.70;2201.60;;;;;;5091034;28;20377;-82
2024/01/20 04:49:09;;;;;;;22.73;13.20;;;25.70;2201.60;;;;;;5090654;28;20044;-84
2024/01/20 04:51:34;;;;;;;27.13;19.55;;;25.70;2201.60;;;;;;5084032;28;20031;-77
2024/01/20 04:54:00;;;;;;;21.35;14.32;;;25.90;2201.60;;;;;;5091436;28;20039;-83
2024/01/20 04:56:26;;;;;;;26.55;16.40;;;25.70;2201.60;;;;;;5091341;28;20031;-83
2024/01/20 04:58:53;;;;;;;19.85;12.27;;;25.70;2201.60;;;;;;5091756;28;20030;-85
2024/01/20 05:01:19;;;;;;;19.80;13.55;;;25.70;2201.60;;;;;;5091141;28;20024;-83
2024/01/20 05:03:45;;;;;;;24.80;12.88;;;25.70;2201.60;;;;;;5090496;28;20040;-78
2024/01/20 05:06:11;;;;;;;153.65;73.90;;;25.80;2201.60;;;;;;5090457;28;20047;-82
2024/01/20 05:08:37;;;;;;;26.70;15.77;;;25.80;2201.60;;;;;;5072899;28;20047;-83
2024/01/20 05:11:03;;;;;;;24.55;12.90;;;25.70;2201.60;;;;;;5082417;28;20028;-78
2024/01/20 05:13:28;;;;;;;30.63;22.85;;;25.70;2201.60;;;;;;5091101;28;20023;-84
2024/01/20 05:15:54;;;;;;;23.73;14.90;;;25.70;2201.60;;;;;;5091077;28;20103;-83
2024/01/20 05:18:20;;;;;;;21.63;13.32;;;25.70;2201.60;;;;;;5086299;28;20024;-83
2024/01/20 05:20:46;;;;;;;24.88;14.40;;;25.70;2201.60;;;;;;5070954;28;20502;-82
2024/01/20 05:23:12;;;;;;;23.45;13.52;;;25.70;2201.60;;;;;;5070922;28;20048;-81
2024/01/20 05:25:38;;;;;;;22.13;14.27;;;25.80;2201.60;;;;;;5082157;28;20031;-82
2024/01/20 05:28:04;;;;;;;22.02;12.65;;;25.70;2201.60;;;;;;5091393;28;20020;-81
2024/01/20 05:30:30;;;;;;;22.88;12.60;;;25.70;2201.60;;;;;;5079234;28;20036;-80
2024/01/20 05:32:56;;;;;;;27.63;13.73;;;25.70;2201.60;;;;;;5088672;28;20036;-79
2024/01/20 05:35:22;;;;;;;27.30;14.80;;;25.80;2201.60;;;;;;5089825;28;20501;-83
2024/01/20 05:37:48;;;;;;;20.67;14.02;;;25.70;2201.60;;;;;;5091043;28;20027;-86
2024/01/20 05:40:14;;;;;;;33.78;19.17;;;25.70;2201.60;;;;;;5079180;28;20086;-80
2024/01/20 05:42:39;;;;;;;22.27;16.60;;;25.80;2201.60;;;;;;5088795;28;20051;-82
2024/01/20 05:45:08;;;;;;;27.98;17.42;;;25.70;2201.60;;;;;;5078451;28;20092;-81
2024/01/20 05:47:36;;;;;;;22.90;12.80;;;25.70;2201.60;;;;;;5083741;28;20020;-80
2024/01/20 05:50:03;;;;;;;22.50;14.63;;;25.80;2201.60;;;;;;5082403;28;20070;-80
2024/01/20 05:52:29;;;;;;;23.33;14.25;;;25.80;2201.60;;;;;;5090390;28;20047;-81
2024/01/20 05:54:54;;;;;;;23.75;12.52;;;25.80;2201.60;;;;;;5081177;28;20063;-75
2024/01/20 05:57:20;;;;;;;26.90;14.68;;;25.90;2201.60;;;;;;5085749;28;20020;-80
2024/01/20 05:59:46;;;;;;;21.90;14.40;;;25.90;2201.60;;;;;;5090119;28;20046;-79
2024/01/20 06:02:12;;;;;;;24.30;13.25;;;25.90;2201.60;;;;;;5076340;28;20104;-77
2024/01/20 06:04:37;;;;;;;24.23;12.27;;;25.90;2201.60;;;;;;5089805;28;20035;-77
2024/01/20 06:07:03;;;;;;;31.45;23.73;;;25.90;2201.60;;;;;;5089369;28;20035;-78
2024/01/20 06:09:29;;;;;;;20.98;15.90;;;25.90;2201.60;;;;;;5079902;28;20119;-77
2024/01/20 06:11:55;;;;;;;25.02;16.90;;;25.90;2201.60;;;;;;5071715;28;20029;-78
2024/01/20 06:14:21;;;;;;;21.10;12.18;;;25.80;2201.60;;;;;;5089710;28;20154;-78
2024/01/20 06:16:46;;;;;;;28.10;14.13;;;25.90;2201.60;;;;;;5089669;28;20417;-77
2024/01/20 06:19:13;;;;;;;24.08;15.55;;;25.90;2201.60;;;;;;5088538;28;20105;-78
2024/01/20 06:21:38;;;;;;;28.45;15.20;;;25.90;2201.60;;;;;;5074899;28;20047;-78
2024/01/20 06:24:04;;;;;;;27.17;14.60;;;25.90;2201.60;;;;;;5089537;28;20024;-77
2024/01/20 06:26:30;;;;;;;24.25;14.35;;;25.90;2201.60;;;;;;5088230;28;20132;-77
2024/01/20 06:28:56;;;;;;;22.35;14.15;;;25.90;2201.60;;;;;;5089443;28;20044;-78
2024/01/20 06:31:26;;;;;;;22.25;15.77;;;25.90;2201.60;;;;;;5089575;28;20030;-78
2024/01/20 06:33:53;;;;;;;26.08;17.40;;;25.90;2201.60;;;;;;5089327;28;20432;-78
2024/01/20 06:36:21;;;;;;;24.38;16.05;;;25.90;2201.60;;;;;;5086294;28;20028;-78
2024/01/20 06:38:48;;;;;;;22.60;13.82;;;25.90;2201.60;;;;;;5069124;28;20030;-78
2024/01/20 06:41:14;;;;;;;70.00;39.42;;;25.90;2201.60;;;;;;5068476;28;20027;-78
2024/01/20 06:43:40;;;;;;;421.63;287.15;;;26.00;2201.60;;;;;;5069074;28;20029;-77
2024/01/20 06:46:07;;;;;;;41.53;25.38;;;25.80;2201.60;;;;;;5082330;28;20023;-76
2024/01/20 06:48:33;;;;;;;23.73;14.00;;;25.90;2201.60;;;;;;5067673;28;20482;-77
2024/01/20 06:51:06;;;;;;;80.53;51.28;;;26.00;2201.60;;;;;;5073219;28;20042;-77
2024/01/20 06:53:32;;;;;;;35.33;17.27;;;51.40;2227.20;;;;;;5076543;28;20036;-77
2024/01/20 06:55:58;;;;;;;25.25;16.58;;;26.10;2201.60;;;;;;5086080;28;20024;-78
2024/01/20 06:58:24;;;;;;;27.38;17.40;;;26.20;2201.60;;;;;;5089101;28;20037;-78
2024/01/20 07:00:50;;;;;;;26.40;16.95;;;26.00;2201.60;;;;;;5089272;28;20020;-78
2024/01/20 07:03:16;;;;;;;22.10;14.43;;;26.10;2201.60;;;;;;5088615;28;20390;-77
2024/01/20 07:05:42;;;;;;;22.33;14.07;;;26.10;2201.60;;;;;;5087515;28;20020;-78
2024/01/20 07:08:09;;;;;;;20.88;13.82;;;26.20;2201.60;;;;;;5088020;28;20023;-77
2024/01/20 07:10:35;;;;;;;29.85;18.67;;;26.10;2201.60;;;;;;5087599;28;20040;-78
2024/01/20 07:13:01;;;;;;;23.95;14.70;;;26.20;2201.60;;;;;;5089364;28;20492;-77
2024/01/20 07:15:27;;;;;;;26.80;14.05;;;26.20;2201.60;;;;;;5087473;28;20038;-77
2024/01/20 07:17:56;;;;;;;23.35;15.45;;;26.20;2201.60;;;;;;5078336;28;20340;-78
2024/01/20 07:20:25;;;;;;;34.28;22.65;;;26.20;2201.60;;;;;;5068688;28;20119;-77
2024/01/20 07:22:51;;;;;;;24.10;13.93;;;26.20;2201.60;;;;;;5068891;28;20447;-77
2024/01/20 07:25:20;;;;;;;22.02;14.15;;;26.20;2201.60;;;;;;5086439;28;20027;-74
2024/01/20 07:27:45;;;;;;;132.00;57.97;;;26.20;2201.60;;;;;;5087737;28;20473;-76
2024/01/20 07:30:11;;;;;;;34.05;18.90;;;26.30;2201.60;;;;;;5088289;28;20024;-76
2024/01/20 07:32:40;;;;;;;47.47;27.85;;;26.20;2201.60;;;;;;5088618;28;20161;-76
2024/01/20 07:35:08;;;;;;;75.70;38.90;;;26.30;2201.60;;;;;;5086449;28;20201;-76
2024/01/20 07:37:37;;;;;;;45.03;23.58;;;26.40;2201.60;;;;;;5077718;28;20474;-77
2024/01/20 07:40:04;;;;;;;133.27;68.03;;;26.40;2201.60;;;;;;5084025;28;20384;-77
2024/01/20 07:42:32;;;;;;;64.28;48.88;;;26.40;2201.60;;;;;;5068765;28;20032;-76
2024/01/20 07:44:59;;;;;;;26.38;15.23;;;26.50;2201.60;;;;;;5085317;28;20493;-76
2024/01/20 07:47:25;;;;;;;30.88;16.80;;;51.20;2227.20;;;;;;5076876;28;20471;-76
2024/01/20 07:49:51;;;;;;;45.40;24.83;;;51.20;2227.20;;;;;;5084819;28;20038;-76
2024/01/20 07:52:17;;;;;;;20.90;13.90;;;51.30;2227.20;;;;;;5088266;28;20020;-76
2024/01/20 07:54:42;;;;;;;22.23;13.65;;;51.30;2227.20;;;;;;5083178;28;20036;-76
2024/01/20 07:57:09;;;;;;;20.80;12.48;;;51.30;2227.20;;;;;;5084917;28;20028;-77
2024/01/20 07:59:35;;;;;;;20.30;11.38;;;51.30;2227.20;;;;;;5083743;28;20036;-76
2024/01/20 08:02:01;;;;;;;19.17;10.95;;;51.30;2227.20;;;;;;5086034;28;20385;-78
2024/01/20 08:04:26;;;;;;;24.48;14.85;;;51.40;2227.20;;;;;;5092159;28;20496;-77
2024/01/20 08:06:52;;;;;;;39.17;26.10;;;51.70;2227.20;;;;;;5089088;28;20036;-77
2024/01/20 08:09:19;;;;;;;34.40;21.55;;;51.70;2227.20;;;;;;5092163;28;20039;-77
2024/01/20 08:11:45;;;;;;;35.17;21.55;;;51.80;2227.20;;;;;;5091292;28;20028;-77
2024/01/20 08:14:11;;;;;;;21.88;13.02;;;51.70;2227.20;;;;;;5089843;28;20040;-77
2024/01/20 08:16:37;;;;;;;18.00;13.88;;;51.80;2227.20;;;;;;5084736;28;20382;-80
2024/01/20 08:19:02;;;;;;;21.80;12.82;;;51.80;2227.20;;;;;;5076971;28;20043;-80
2024/01/20 08:21:28;;;;;;;19.15;14.77;;;51.90;2227.20;;;;;;5082051;28;20456;-78
2024/01/20 08:23:54;;;;;;;55.95;37.28;;;52.00;2227.20;;;;;;5079946;28;20028;-79
2024/01/20 08:26:20;;;;;;;22.13;15.77;;;52.10;2227.20;;;;;;5077618;28;20096;-78
2024/01/20 08:28:46;;;;;;;18.17;10.13;;;52.00;2227.20;;;;;;5080273;28;20112;-81
2024/01/20 08:31:12;;;;;;;16.70;12.02;;;52.00;2227.20;;;;;;5072284;28;20029;-79
2024/01/20 08:33:38;;;;;;;36.92;21.98;;;76.80;2227.20;;;;;;5079084;28;20510;-76
2024/01/20 08:36:04;;;;;;;17.23;10.85;;;52.10;2227.20;;;;;;5071758;28;20037;-79
2024/01/20 08:38:30;;;;;;;22.67;12.50;;;52.10;2227.20;;;;;;5076682;28;20172;-79
2024/01/20 08:40:55;;;;;;;24.45;15.80;;;76.90;2227.20;;;;;;5081925;28;20108;-80
2024/01/20 08:43:21;;;;;;;35.20;22.48;;;77.00;2227.20;;;;;;5082550;28;20035;-80
2024/01/20 08:45:47;;;;;;;15.68;9.63;;;76.90;2227.20;;;;;;5087953;28;20505;-78
2024/01/20 08:48:13;;;;;;;18.45;10.77;;;76.90;2227.20;;;;;;5076611;28;20379;-77
2024/01/20 08:50:38;;;;;;;14.82;10.93;;;77.00;2227.20;;;;;;5072424;28;20390;-78
2024/01/20 08:53:04;;;;;;;16.33;9.63;;;77.10;2227.20;;;;;;5079357;28;20463;-82
2024/01/20 08:55:30;;;;;;;19.60;10.20;;;77.10;2227.20;;;;;;5079673;28;20495;-75
2024/01/20 08:57:56;;;;;;;16.45;9.93;;;77.10;2227.20;;;;;;5077434;28;20036;-78
2024/01/20 09:00:23;;;;;;;18.67;10.02;;;77.10;2227.20;;;;;;5079528;28;20111;-78
2024/01/20 09:02:48;;;;;;;16.08;9.88;;;77.00;2227.20;;;;;;5073267;28;20465;-77
2024/01/20 09:05:17;;;;;;;19.48;8.98;;;77.40;2227.20;;;;;;5084661;28;20114;-78
2024/01/20 09:07:43;;;;;;;17.75;10.02;;;77.40;2227.20;;;;;;5078940;28;20533;-80
2024/01/20 09:10:09;;;;;;;13.43;8.60;;;77.40;2227.20;;;;;;5073242;28;20045;-78
2024/01/20 09:12:35;;;;;;;16.40;9.70;;;77.50;2227.20;;;;;;5078375;28;20032;-77
2024/01/20 09:15:01;;;;;;;16.35;10.27;;;77.30;2227.20;;;;;;5074167;28;20032;-79
2024/01/20 09:17:27;;;;;;;16.05;10.45;;;77.20;2227.20;;;;;;5073474;28;20253;-79
2024/01/20 09:19:52;;;;;;;20.30;9.82;;;77.40;2227.20;;;;;;5090682;28;20036;-79
2024/01/20 09:22:18;;;;;;;197.20;102.43;;;77.50;2227.20;;;;;;5089340;28;20024;-77
2024/01/20 09:24:44;;;;;;;26.45;14.35;;;77.50;2227.20;;;;;;5090344;28;20032;-77
2024/01/20 09:27:10;;;;;;;20.00;11.52;;;77.50;2227.20;;;;;;5090669;28;20028;-79
2024/01/20 09:29:35;;;;;;;23.55;13.98;;;77.60;2227.20;;;;;;5090327;28;20032;-76
2024/01/20 09:32:01;;;;;;;25.48;16.60;;;77.50;2227.20;;;;;;5090817;28;20032;-79
2024/01/20 09:34:28;;;;;;;39.10;33.83;;;77.60;2227.20;;;;;;5076666;28;20036;-76
2024/01/20 09:36:54;;;;;;;152.88;78.55;;;77.70;2227.20;;;;;;5079301;28;20048;-81
2024/01/20 09:39:20;;;;;;;171.30;85.75;;;102.50;2227.20;;;;;;5076018;28;20040;-77
2024/01/20 09:41:47;;;;;;;29.30;18.23;;;77.70;2227.20;;;;;;5083759;28;20024;-77
2024/01/20 09:44:14;;;;;;;24.80;15.55;;;102.50;2227.20;;;;;;5080246;28;20028;-77
2024/01/20 09:46:40;;;;;;;17.92;11.90;;;102.40;2227.20;;;;;;5077076;28;20012;-78
2024/01/20 09:49:06;;;;;;;43.47;22.30;;;77.50;2227.20;;;;;;5072835;28;20342;-76
2024/01/20 09:51:32;;;;;;;21.13;11.27;;;102.50;2227.20;;;;;;5079863;28;20024;-79
2024/01/20 09:54:00;;;;;;;43.75;25.02;;;102.60;2227.20;;;;;;5077898;28;20024;-79
2024/01/20 09:56:27;;;;;;;39.83;21.08;;;102.50;2227.20;;;;;;5076732;28;20163;-76
2024/01/20 09:58:57;;;;;;;34.28;18.15;;;77.60;2227.20;;;;;;5078064;28;20370;-78
2024/01/20 10:01:24;;;;;;;28.13;16.33;;;102.50;2227.20;;;;;;5077062;28;20398;-79
2024/01/20 10:03:50;;;;;;;131.98;63.45;;;102.50;2227.20;;;;;;5080560;28;20101;-80
2024/01/20 10:06:16;;;;;;;21.60;11.27;;;102.60;2227.20;;;;;;5074417;28;20054;-78
2024/01/20 10:08:42;;;;;;;31.95;15.95;;;102.40;2227.20;;;;;;5081485;28;20045;-81
2024/01/20 10:11:08;;;;;;;17.85;10.55;;;102.40;2227.20;;;;;;5085583;28;20081;-77
2024/01/20 10:13:34;;;;;;;24.30;15.88;;;77.60;2227.20;;;;;;5076202;28;20040;-79
2024/01/20 10:16:01;;;;;;;21.20;12.98;;;77.40;2227.20;;;;;;5073420;28;20478;-77
2024/01/20 10:18:27;;;;;;;17.98;12.38;;;77.40;2227.20;;;;;;5080541;28;20060;-78
2024/01/20 10:21:06;;;;;;;23.15;11.98;;;77.50;2227.20;;;;;;5069686;28;20386;-79
2024/01/20 10:23:36;;;;;;;17.17;9.80;;;77.60;2227.20;;;;;;5094654;28;20032;-78
2024/01/20 10:26:03;;;;;;;15.55;10.23;;;77.40;2227.20;;;;;;5079193;28;20400;-77
2024/01/20 10:28:29;;;;;;;30.05;15.25;;;77.10;2227.20;;;;;;5074261;28;20021;-87
2024/01/20 10:30:55;;;;;;;32.25;18.38;;;77.20;2227.20;;;;;;5077907;28;20032;-80
2024/01/20 10:33:22;;;;;;;18.83;10.93;;;77.30;2227.20;;;;;;5075181;28;20036;-77
2024/01/20 10:35:54;;;;;;;48.45;29.08;;;77.30;2227.20;;;;;;5071533;28;20120;-79
2024/01/20 10:38:21;;;;;;;19.83;11.35;;;77.10;2227.20;;;;;;5080457;28;20127;-79
2024/01/20 10:40:53;;;;;;;17.90;11.07;;;76.90;2227.20;;;;;;5076045;28;20025;-79
2024/01/20 10:43:19;;;;;;;22.90;13.65;;;77.10;2227.20;;;;;;5081117;28;20036;-79
2024/01/20 10:46:01;;;;;;;15.70;10.88;;;76.90;2227.20;;;;;;5078320;28;20086;-79
2024/01/20 10:48:36;;;;;;;17.80;10.65;;;77.10;2227.20;;;;;;5071457;28;20386;-81
2024/01/20 10:51:07;;;;;;;28.27;16.58;;;77.20;2227.20;;;;;;5073810;28;20035;-80
2024/01/20 10:53:33;;;;;;;31.98;18.30;;;77.40;2227.20;;;;;;5080860;28;20016;-78
2024/01/20 10:56:00;;;;;;;20.00;13.00;;;77.70;2227.20;;;;;;5084701;28;20032;-78
2024/01/20 10:58:38;;;;;;;18.83;11.98;;;102.50;2227.20;;;;;;5078832;28;20020;-78
2024/01/20 11:01:05;;;;;;;70.57;52.65;;;102.50;2227.20;;;;;;5075197;28;20028;-76
2024/01/20 11:03:31;;;;;;;19.95;12.75;;;102.70;2227.20;;;;;;5079670;28;20044;-78
2024/01/20 11:05:57;;;;;;;19.98;13.93;;;102.80;2227.20;;;;;;5070847;28;20121;-76
2024/01/20 11:08:25;;;;;;;23.35;15.45;;;102.70;2227.20;;;;;;5078263;28;20035;-77
2024/01/20 11:10:55;;;;;;;18.63;12.65;;;102.60;2227.20;;;;;;5082660;28;20024;-80
2024/01/20 11:13:26;;;;;;;16.65;10.93;;;77.70;2227.20;;;;;;5082278;28;20031;-78
2024/01/20 11:15:52;;;;;;;26.73;15.75;;;102.50;2227.20;;;;;;5074335;28;20016;-76
2024/01/20 11:18:22;;;;;;;19.02;12.02;;;77.30;2227.20;;;;;;5076339;28;20028;-77
2024/01/20 11:20:57;;;;;;;30.38;17.98;;;77.40;2227.20;;;;;;5074164;28;20029;-75
2024/01/20 11:23:24;;;;;;;30.52;18.08;;;77.60;2227.20;;;;;;5075843;28;20157;-74
2024/01/20 11:25:50;;;;;;;17.85;11.38;;;77.60;2227.20;;;;;;5074696;28;20110;-75
2024/01/20 11:28:24;;;;;;;42.90;24.13;;;77.70;2227.20;;;;;;5078160;28;20083;-74
2024/01/20 11:30:50;;;;;;;23.77;15.02;;;77.60;2227.20;;;;;;5078249;28;20024;-75
2024/01/20 11:33:16;;;;;;;22.10;12.95;;;77.60;2227.20;;;;;;5081365;28;20047;-76
2024/01/20 11:35:42;;;;;;;17.20;11.05;;;77.60;2227.20;;;;;;5080684;28;20036;-76
2024/01/20 11:38:08;;;;;;;21.02;13.75;;;77.70;2227.20;;;;;;5084794;28;20047;-77
2024/01/20 11:40:33;;;;;;;23.52;14.35;;;77.70;2227.20;;;;;;5087902;28;20024;-75
2024/01/20 11:43:11;;;;;;;20.63;11.32;;;77.50;2227.20;;;;;;5086523;28;20417;-77
2024/01/20 11:45:38;;;;;;;21.67;11.43;;;77.40;2227.20;;;;;;5077515;28;20021;-75
2024/01/20 11:48:04;;;;;;;19.95;13.18;;;77.50;2227.20;;;;;;5072130;28;20154;-76
2024/01/20 11:50:30;;;;;;;18.98;13.18;;;77.40;2227.20;;;;;;5076384;28;20039;-77
2024/01/20 11:52:56;;;;;;;29.38;19.05;;;77.50;2227.20;;;;;;5089636;28;20122;-77
2024/01/20 11:55:21;;;;;;;43.50;21.25;;;77.70;2227.20;;;;;;5079835;28;20032;-76
2024/01/20 11:57:47;;;;;;;19.92;11.18;;;77.60;2227.20;;;;;;5077840;28;20031;-75
2024/01/20 12:00:14;;;;;;;28.25;18.25;;;77.60;2227.20;;;;;;5079788;28;20112;-76
2024/01/20 12:02:50;;;;;;;19.67;12.93;;;77.70;2227.20;;;;;;5076167;28;20062;-76
2024/01/20 12:05:16;;;;;;;18.65;12.20;;;77.70;2227.20;;;;;;5092089;28;20035;-77